sensor_id;sensor_type;location;lat;lon;timestamp;pressure;altitude;pressure_sealevel;temperature;humidity
78845;BME280;68195;50.854;2.860;2023-04-24T00:00:17;100076.06;;;8.35;85.17
78845;BME280;68195;50.854;2.860;2023-04-24T00:02:45;100151.97;;;8.78;85.58
78845;BME280;68195;50.854;2.860;2023-04-24T00:05:14;100134.47;;;8.65;85.49
78845;BME280;68195;50.854;2.860;2023-04-24T00:07:40;100161.06;;;8.87;85.30
78845;BME280;68195;50.854;2.860;2023-04-24T00:10:06;100207.03;;;9.21;84.42
78845;BME280;68195;50.854;2.860;2023-04-24T00:12:31;100212.03;;;9.09;85.70
78845;BME280;68195;50.854;2.860;2023-04-24T00:14:57;100222.31;;;9.12;85.48
78845;BME280;68195;50.854;2.860;2023-04-24T00:17:24;100214.88;;;9.04;86.46
78845;BME280;68195;50.854;2.860;2023-04-24T00:19:50;100204.63;;;9.01;85.22
78845;BME280;68195;50.854;2.860;2023-04-24T00:22:17;100198.28;;;8.89;86.27
78845;BME280;68195;50.854;2.860;2023-04-24T00:24:42;100232.13;;;9.07;85.74
78845;BME280;68195;50.854;2.860;2023-04-24T00:27:10;100192.47;;;8.84;86.05
78845;BME280;68195;50.854;2.860;2023-04-24T00:29:38;100224.94;;;8.94;87.17
78845;BME280;68195;50.854;2.860;2023-04-24T00:32:03;100208.03;;;8.86;87.14
78845;BME280;68195;50.854;2.860;2023-04-24T00:34:29;100173.34;;;8.68;86.75
78845;BME280;68195;50.854;2.860;2023-04-24T00:36:54;100222.13;;;8.81;88.97
78845;BME280;68195;50.854;2.860;2023-04-24T00:39:20;100224.00;;;8.95;87.29
78845;BME280;68195;50.854;2.860;2023-04-24T00:41:48;100189.66;;;8.71;87.18
78845;BME280;68195;50.854;2.860;2023-04-24T00:44:16;100225.31;;;9.04;86.37
78845;BME280;68195;50.854;2.860;2023-04-24T00:46:42;100231.25;;;8.90;87.62
78845;BME280;68195;50.854;2.860;2023-04-24T00:49:08;100228.63;;;8.90;87.95
78845;BME280;68195;50.854;2.860;2023-04-24T00:51:35;100225.34;;;8.87;88.12
78845;BME280;68195;50.854;2.860;2023-04-24T00:54:03;100187.75;;;8.75;87.34
78845;BME280;68195;50.854;2.860;2023-04-24T00:56:29;100151.66;;;8.51;87.53
78845;BME280;68195;50.854;2.860;2023-04-24T00:58:55;100223.44;;;8.90;87.65
78845;BME280;68195;50.854;2.860;2023-04-24T01:01:21;100170.28;;;8.59;87.43
78845;BME280;68195;50.854;2.860;2023-04-24T01:03:48;100220.75;;;8.74;88.88
78845;BME280;68195;50.854;2.860;2023-04-24T01:06:14;100234.63;;;8.75;88.37
78845;BME280;68195;50.854;2.860;2023-04-24T01:08:40;100222.13;;;8.81;88.15
78845;BME280;68195;50.854;2.860;2023-04-24T01:11:06;100108.31;;;7.98;89.21
78845;BME280;68195;50.854;2.860;2023-04-24T01:13:32;100104.34;;;8.08;88.02
78845;BME280;68195;50.854;2.860;2023-04-24T01:15:58;100205.84;;;8.60;88.69
78845;BME280;68195;50.854;2.860;2023-04-24T01:18:24;100143.19;;;8.29;88.47
78845;BME280;68195;50.854;2.860;2023-04-24T01:20:50;100237.44;;;8.88;88.26
78845;BME280;68195;50.854;2.860;2023-04-24T01:23:18;100115.94;;;8.18;87.55
78845;BME280;68195;50.854;2.860;2023-04-24T01:25:44;100241.31;;;8.79;89.53
78845;BME280;68195;50.854;2.860;2023-04-24T01:28:09;100202.38;;;8.60;88.85
78845;BME280;68195;50.854;2.860;2023-04-24T01:30:35;100241.56;;;8.57;90.71
78845;BME280;68195;50.854;2.860;2023-04-24T01:33:04;100253.16;;;8.51;92.10
78845;BME280;68195;50.854;2.860;2023-04-24T01:35:29;100237.53;;;8.51;90.63
78845;BME280;68195;50.854;2.860;2023-04-24T01:37:57;100247.41;;;8.26;93.65
78845;BME280;68195;50.854;2.860;2023-04-24T01:40:23;100271.47;;;8.12;94.96
78845;BME280;68195;50.854;2.860;2023-04-24T01:42:51;100245.03;;;8.21;94.49
78845;BME280;68195;50.854;2.860;2023-04-24T01:45:16;100222.00;;;7.94;94.74
78845;BME280;68195;50.854;2.860;2023-04-24T01:47:45;100258.28;;;8.16;94.93
78845;BME280;68195;50.854;2.860;2023-04-24T01:50:11;100209.41;;;7.87;94.66
78845;BME280;68195;50.854;2.860;2023-04-24T01:52:36;100223.56;;;7.79;95.09
78845;BME280;68195;50.854;2.860;2023-04-24T01:55:03;100271.56;;;8.10;95.56
78845;BME280;68195;50.854;2.860;2023-04-24T01:57:30;100274.09;;;8.29;94.94
78845;BME280;68195;50.854;2.860;2023-04-24T01:59:55;100241.75;;;7.79;95.64
78845;BME280;68195;50.854;2.860;2023-04-24T02:02:21;100170.38;;;7.31;96.02
78845;BME280;68195;50.854;2.860;2023-04-24T02:04:49;100293.09;;;7.95;96.86
78845;BME280;68195;50.854;2.860;2023-04-24T02:07:19;100280.28;;;7.71;98.09
78845;BME280;68195;50.854;2.860;2023-04-24T02:09:45;100274.78;;;7.77;97.67
78845;BME280;68195;50.854;2.860;2023-04-24T02:12:15;100303.97;;;7.84;97.60
78845;BME280;68195;50.854;2.860;2023-04-24T02:14:43;100302.47;;;7.78;97.97
78845;BME280;68195;50.854;2.860;2023-04-24T02:17:09;100294.47;;;7.64;97.94
78845;BME280;68195;50.854;2.860;2023-04-24T02:19:34;100245.06;;;7.26;97.67
78845;BME280;68195;50.854;2.860;2023-04-24T02:22:05;100259.19;;;7.39;97.99
78845;BME280;68195;50.854;2.860;2023-04-24T02:24:30;100266.19;;;7.37;98.62
78845;BME280;68195;50.854;2.860;2023-04-24T02:26:55;100305.78;;;7.63;98.16
78845;BME280;68195;50.854;2.860;2023-04-24T02:29:21;100283.69;;;7.53;98.37
78845;BME280;68195;50.854;2.860;2023-04-24T02:31:46;100312.53;;;7.67;97.82
78845;BME280;68195;50.854;2.860;2023-04-24T02:34:12;100290.09;;;7.46;98.52
78845;BME280;68195;50.854;2.860;2023-04-24T02:36:37;100310.63;;;7.52;98.37
78845;BME280;68195;50.854;2.860;2023-04-24T02:39:05;100195.13;;;6.80;98.30
78845;BME280;68195;50.854;2.860;2023-04-24T02:41:30;100285.19;;;7.19;98.45
78845;BME280;68195;50.854;2.860;2023-04-24T02:44:00;100318.53;;;7.49;97.53
78845;BME280;68195;50.854;2.860;2023-04-24T02:46:26;100318.94;;;7.39;98.20
78845;BME280;68195;50.854;2.860;2023-04-24T02:48:53;100348.53;;;7.56;98.09
78845;BME280;68195;50.854;2.860;2023-04-24T02:51:19;100358.00;;;7.57;98.15
78845;BME280;68195;50.854;2.860;2023-04-24T02:53:44;100286.88;;;7.20;97.97
78845;BME280;68195;50.854;2.860;2023-04-24T02:56:09;100260.28;;;6.94;97.77
78845;BME280;68195;50.854;2.860;2023-04-24T02:58:39;100369.13;;;7.60;98.11
78845;BME280;68195;50.854;2.860;2023-04-24T03:01:05;100361.84;;;7.48;97.68
78845;BME280;68195;50.854;2.860;2023-04-24T03:03:31;100357.50;;;7.49;98.06
78845;BME280;68195;50.854;2.860;2023-04-24T03:05:56;100346.00;;;7.34;97.58
78845;BME280;68195;50.854;2.860;2023-04-24T03:08:22;100377.81;;;7.59;97.94
78845;BME280;68195;50.854;2.860;2023-04-24T03:10:48;100374.78;;;7.50;97.86
78845;BME280;68195;50.854;2.860;2023-04-24T03:13:13;100306.22;;;7.33;96.92
78845;BME280;68195;50.854;2.860;2023-04-24T03:15:41;100263.00;;;7.12;95.92
78845;BME280;68195;50.854;2.860;2023-04-24T03:18:11;100284.03;;;7.06;96.91
78845;BME280;68195;50.854;2.860;2023-04-24T03:20:37;100387.81;;;7.69;96.89
78845;BME280;68195;50.854;2.860;2023-04-24T03:23:07;100329.22;;;7.22;96.63
78845;BME280;68195;50.854;2.860;2023-04-24T03:25:32;100297.78;;;7.08;96.39
78845;BME280;68195;50.854;2.860;2023-04-24T03:28:02;100368.03;;;7.46;96.20
78845;BME280;68195;50.854;2.860;2023-04-24T03:30:27;100333.38;;;7.26;96.49
78845;BME280;68195;50.854;2.860;2023-04-24T03:32:55;100331.88;;;7.41;94.90
78845;BME280;68195;50.854;2.860;2023-04-24T03:35:20;100390.50;;;7.67;95.42
78845;BME280;68195;50.854;2.860;2023-04-24T03:37:47;100416.22;;;7.73;95.94
78845;BME280;68195;50.854;2.860;2023-04-24T03:40:12;100341.16;;;7.26;95.31
78845;BME280;68195;50.854;2.860;2023-04-24T03:42:38;100414.56;;;7.71;96.04
78845;BME280;68195;50.854;2.860;2023-04-24T03:45:03;100370.31;;;7.33;95.09
78845;BME280;68195;50.854;2.860;2023-04-24T03:47:34;100360.50;;;7.39;95.45
78845;BME280;68195;50.854;2.860;2023-04-24T03:50:02;100419.72;;;7.72;94.87
78845;BME280;68195;50.854;2.860;2023-04-24T03:52:30;100420.13;;;7.63;94.69
78845;BME280;68195;50.854;2.860;2023-04-24T03:54:55;100425.50;;;7.79;94.67
78845;BME280;68195;50.854;2.860;2023-04-24T03:57:20;100392.31;;;7.45;94.41
78845;BME280;68195;50.854;2.860;2023-04-24T03:59:46;100450.66;;;7.78;93.97
78845;BME280;68195;50.854;2.860;2023-04-24T04:02:11;100393.03;;;7.48;94.32
78845;BME280;68195;50.854;2.860;2023-04-24T04:04:40;100294.84;;;6.95;92.99
78845;BME280;68195;50.854;2.860;2023-04-24T04:07:05;100419.00;;;7.69;92.64
78845;BME280;68195;50.854;2.860;2023-04-24T04:09:31;100402.66;;;7.46;92.54
78845;BME280;68195;50.854;2.860;2023-04-24T04:11:57;100467.72;;;8.05;91.29
78845;BME280;68195;50.854;2.860;2023-04-24T04:14:26;100471.94;;;8.07;91.07
78845;BME280;68195;50.854;2.860;2023-04-24T04:16:51;100291.88;;;6.84;92.24
78845;BME280;68195;50.854;2.860;2023-04-24T04:19:17;100467.88;;;8.01;91.66
78845;BME280;68195;50.854;2.860;2023-04-24T04:21:44;100441.19;;;7.96;89.89
78845;BME280;68195;50.854;2.860;2023-04-24T04:24:13;100383.28;;;7.53;90.16
78845;BME280;68195;50.854;2.860;2023-04-24T04:26:38;100469.06;;;8.13;89.68
78845;BME280;68195;50.854;2.860;2023-04-24T04:29:04;100356.22;;;7.18;90.60
78845;BME280;68195;50.854;2.860;2023-04-24T04:31:29;100484.16;;;8.05;90.90
78845;BME280;68195;50.854;2.860;2023-04-24T04:33:55;100493.34;;;8.33;89.10
78845;BME280;68195;50.854;2.860;2023-04-24T04:36:20;100474.00;;;8.19;89.58
78845;BME280;68195;50.854;2.860;2023-04-24T04:38:48;100498.31;;;8.18;89.50
78845;BME280;68195;50.854;2.860;2023-04-24T04:41:16;100480.25;;;8.15;89.63
78845;BME280;68195;50.854;2.860;2023-04-24T04:43:43;100472.66;;;8.11;89.80
78845;BME280;68195;50.854;2.860;2023-04-24T04:46:08;100468.81;;;7.99;89.86
78845;BME280;68195;50.854;2.860;2023-04-24T04:48:35;100415.94;;;7.38;90.49
78845;BME280;68195;50.854;2.860;2023-04-24T04:51:01;100488.94;;;7.95;90.45
78845;BME280;68195;50.854;2.860;2023-04-24T04:53:26;100385.13;;;7.31;90.39
78845;BME280;68195;50.854;2.860;2023-04-24T04:55:54;100428.03;;;7.39;91.64
78845;BME280;68195;50.854;2.860;2023-04-24T04:58:22;100519.28;;;7.95;90.94
78845;BME280;68195;50.854;2.860;2023-04-24T05:00:47;100547.56;;;8.02;91.22
78845;BME280;68195;50.854;2.860;2023-04-24T05:03:13;100503.28;;;7.84;91.24
78845;BME280;68195;50.854;2.860;2023-04-24T05:05:39;100531.91;;;8.04;91.16
78845;BME280;68195;50.854;2.860;2023-04-24T05:08:06;100551.91;;;8.22;90.58
78845;BME280;68195;50.854;2.860;2023-04-24T05:10:32;100543.66;;;8.13;89.94
78845;BME280;68195;50.854;2.860;2023-04-24T05:13:02;100502.03;;;7.92;90.53
78845;BME280;68195;50.854;2.860;2023-04-24T05:15:27;100522.13;;;7.68;90.73
78845;BME280;68195;50.854;2.860;2023-04-24T05:17:52;100572.28;;;8.13;90.22
78845;BME280;68195;50.854;2.860;2023-04-24T05:20:18;100584.81;;;8.03;91.09
78845;BME280;68195;50.854;2.860;2023-04-24T05:22:43;100594.44;;;8.21;90.19
78845;BME280;68195;50.854;2.860;2023-04-24T05:25:09;100588.66;;;8.15;90.36
78845;BME280;68195;50.854;2.860;2023-04-24T05:27:34;100560.19;;;7.91;91.02
78845;BME280;68195;50.854;2.860;2023-04-24T05:30:02;100559.78;;;7.80;91.84
78845;BME280;68195;50.854;2.860;2023-04-24T05:32:28;100573.81;;;7.96;90.59
78845;BME280;68195;50.854;2.860;2023-04-24T05:34:53;100618.50;;;8.06;90.60
78845;BME280;68195;50.854;2.860;2023-04-24T05:37:21;100611.44;;;7.88;92.08
78845;BME280;68195;50.854;2.860;2023-04-24T05:39:46;100616.56;;;8.11;91.01
78845;BME280;68195;50.854;2.860;2023-04-24T05:42:14;100621.94;;;8.07;91.80
78845;BME280;68195;50.854;2.860;2023-04-24T05:44:39;100606.88;;;7.72;92.51
78845;BME280;68195;50.854;2.860;2023-04-24T05:47:07;100611.69;;;7.81;92.25
78845;BME280;68195;50.854;2.860;2023-04-24T05:49:32;100644.19;;;8.14;91.41
78845;BME280;68195;50.854;2.860;2023-04-24T05:51:58;100529.91;;;7.48;91.14
78845;BME280;68195;50.854;2.860;2023-04-24T05:54:23;100564.44;;;7.72;90.21
78845;BME280;68195;50.854;2.860;2023-04-24T05:56:49;100602.13;;;8.04;89.28
78845;BME280;68195;50.854;2.860;2023-04-24T05:59:15;100640.19;;;8.05;90.46
78845;BME280;68195;50.854;2.860;2023-04-24T06:01:46;100558.59;;;7.45;91.10
78845;BME280;68195;50.854;2.860;2023-04-24T06:04:14;100669.25;;;8.37;89.49
78845;BME280;68195;50.854;2.860;2023-04-24T06:06:42;100632.44;;;8.26;88.86
78845;BME280;68195;50.854;2.860;2023-04-24T06:09:09;100634.38;;;8.20;89.44
78845;BME280;68195;50.854;2.860;2023-04-24T06:11:35;100629.69;;;8.29;88.96
78845;BME280;68195;50.854;2.860;2023-04-24T06:14:00;100610.38;;;7.93;89.36
78845;BME280;68195;50.854;2.860;2023-04-24T06:16:26;100674.84;;;8.28;90.27
78845;BME280;68195;50.854;2.860;2023-04-24T06:18:51;100581.00;;;7.69;90.54
78845;BME280;68195;50.854;2.860;2023-04-24T06:21:16;100705.63;;;8.38;90.34
78845;BME280;68195;50.854;2.860;2023-04-24T06:23:44;100675.31;;;7.95;90.16
78845;BME280;68195;50.854;2.860;2023-04-24T06:26:11;100692.56;;;8.18;90.47
78845;BME280;68195;50.854;2.860;2023-04-24T06:28:36;100719.13;;;8.48;89.08
78845;BME280;68195;50.854;2.860;2023-04-24T06:31:04;100641.28;;;8.21;88.46
78845;BME280;68195;50.854;2.860;2023-04-24T06:33:29;100717.06;;;8.56;89.13
78845;BME280;68195;50.854;2.860;2023-04-24T06:35:55;100691.41;;;8.47;88.56
78845;BME280;68195;50.854;2.860;2023-04-24T06:38:20;100722.19;;;8.58;89.19
78845;BME280;68195;50.854;2.860;2023-04-24T06:40:46;100717.97;;;8.55;89.63
78845;BME280;68195;50.854;2.860;2023-04-24T06:43:11;100628.81;;;7.87;89.52
78845;BME280;68195;50.854;2.860;2023-04-24T06:45:38;100708.66;;;8.50;89.39
78845;BME280;68195;50.854;2.860;2023-04-24T06:48:04;100744.59;;;8.82;88.77
78845;BME280;68195;50.854;2.860;2023-04-24T06:50:29;100690.25;;;8.54;88.62
78845;BME280;68195;50.854;2.860;2023-04-24T06:52:55;100657.16;;;8.36;87.85
78845;BME280;68195;50.854;2.860;2023-04-24T06:55:20;100724.56;;;8.42;89.93
78845;BME280;68195;50.854;2.860;2023-04-24T06:57:45;100713.91;;;8.48;89.54
78845;BME280;68195;50.854;2.860;2023-04-24T07:00:11;100753.78;;;8.71;89.93
78845;BME280;68195;50.854;2.860;2023-04-24T07:02:39;100746.59;;;8.76;88.97
78845;BME280;68195;50.854;2.860;2023-04-24T07:05:05;100718.28;;;8.68;88.78
78845;BME280;68195;50.854;2.860;2023-04-24T07:07:33;100734.34;;;8.35;89.13
78845;BME280;68195;50.854;2.860;2023-04-24T07:09:59;100681.03;;;8.03;90.88
78845;BME280;68195;50.854;2.860;2023-04-24T07:12:24;100741.56;;;8.51;90.49
78845;BME280;68195;50.854;2.860;2023-04-24T07:14:57;100735.66;;;8.47;88.74
78845;BME280;68195;50.854;2.860;2023-04-24T07:17:25;100761.84;;;8.85;88.25
78845;BME280;68195;50.854;2.860;2023-04-24T07:19:50;100763.28;;;8.92;87.60
78845;BME280;68195;50.854;2.860;2023-04-24T07:22:18;100748.56;;;8.71;88.14
78845;BME280;68195;50.854;2.860;2023-04-24T07:24:48;100745.69;;;8.56;87.04
78845;BME280;68195;50.854;2.860;2023-04-24T07:27:16;100771.75;;;8.55;85.94
78845;BME280;68195;50.854;2.860;2023-04-24T07:29:42;100774.84;;;8.65;85.72
78845;BME280;68195;50.854;2.860;2023-04-24T07:32:07;100760.91;;;8.45;85.16
78845;BME280;68195;50.854;2.860;2023-04-24T07:34:33;100778.28;;;8.65;84.09
78845;BME280;68195;50.854;2.860;2023-04-24T07:37:01;100700.94;;;8.04;84.71
78845;BME280;68195;50.854;2.860;2023-04-24T07:39:26;100788.25;;;8.76;85.00
78845;BME280;68195;50.854;2.860;2023-04-24T07:41:52;100720.09;;;8.24;85.14
78845;BME280;68195;50.854;2.860;2023-04-24T07:44:18;100793.28;;;8.80;85.66
78845;BME280;68195;50.854;2.860;2023-04-24T07:46:43;100687.31;;;8.40;84.84
78845;BME280;68195;50.854;2.860;2023-04-24T07:49:08;100729.63;;;8.47;83.11
78845;BME280;68195;50.854;2.860;2023-04-24T07:51:36;100746.19;;;8.44;84.93
78845;BME280;68195;50.854;2.860;2023-04-24T07:54:04;100756.22;;;8.53;84.69
78845;BME280;68195;50.854;2.860;2023-04-24T07:56:31;100779.81;;;8.71;85.53
78845;BME280;68195;50.854;2.860;2023-04-24T07:58:59;100789.53;;;8.88;85.84
78845;BME280;68195;50.854;2.860;2023-04-24T08:01:26;100771.13;;;8.50;85.14
78845;BME280;68195;50.854;2.860;2023-04-24T08:03:54;100766.88;;;8.47;85.09
78845;BME280;68195;50.854;2.860;2023-04-24T08:06:19;100820.69;;;8.89;85.97
78845;BME280;68195;50.854;2.860;2023-04-24T08:08:45;100817.69;;;8.98;85.10
78845;BME280;68195;50.854;2.860;2023-04-24T08:11:10;100831.66;;;8.97;84.20
78845;BME280;68195;50.854;2.860;2023-04-24T08:13:35;100728.88;;;8.43;84.23
78845;BME280;68195;50.854;2.860;2023-04-24T08:16:01;100822.25;;;8.93;84.09
78845;BME280;68195;50.854;2.860;2023-04-24T08:18:27;100793.28;;;8.60;84.45
78845;BME280;68195;50.854;2.860;2023-04-24T08:20:57;100828.41;;;8.92;84.17
78845;BME280;68195;50.854;2.860;2023-04-24T08:23:26;100831.66;;;8.97;82.91
78845;BME280;68195;50.854;2.860;2023-04-24T08:25:54;100810.47;;;8.85;82.89
78845;BME280;68195;50.854;2.860;2023-04-24T08:28:22;100797.41;;;8.86;83.44
78845;BME280;68195;50.854;2.860;2023-04-24T08:30:47;100831.78;;;9.15;83.29
78845;BME280;68195;50.854;2.860;2023-04-24T08:33:14;100769.59;;;8.66;82.32
78845;BME280;68195;50.854;2.860;2023-04-24T08:35:42;100788.13;;;8.79;84.42
78845;BME280;68195;50.854;2.860;2023-04-24T08:38:09;100810.66;;;8.80;84.56
78845;BME280;68195;50.854;2.860;2023-04-24T08:40:36;100851.31;;;9.25;83.88
78845;BME280;68195;50.854;2.860;2023-04-24T08:43:03;100798.03;;;8.91;83.02
78845;BME280;68195;50.854;2.860;2023-04-24T08:45:29;100847.34;;;9.37;83.46
78845;BME280;68195;50.854;2.860;2023-04-24T08:47:54;100860.22;;;9.60;82.29
78845;BME280;68195;50.854;2.860;2023-04-24T08:50:23;100814.66;;;9.30;82.24
78845;BME280;68195;50.854;2.860;2023-04-24T08:52:52;100846.06;;;9.66;82.14
78845;BME280;68195;50.854;2.860;2023-04-24T08:55:23;100832.22;;;9.45;81.02
78845;BME280;68195;50.854;2.860;2023-04-24T08:57:52;100860.97;;;9.23;81.50
78845;BME280;68195;50.854;2.860;2023-04-24T09:00:20;100807.28;;;8.98;81.90
78845;BME280;68195;50.854;2.860;2023-04-24T09:02:52;100861.81;;;9.44;80.96
78845;BME280;68195;50.854;2.860;2023-04-24T09:05:17;100827.56;;;9.12;81.08
78845;BME280;68195;50.854;2.860;2023-04-24T09:07:49;100826.63;;;9.13;81.00
78845;BME280;68195;50.854;2.860;2023-04-24T09:10:18;100751.47;;;8.63;79.72
78845;BME280;68195;50.854;2.860;2023-04-24T09:12:46;100880.91;;;9.44;81.30
78845;BME280;68195;50.854;2.860;2023-04-24T09:15:12;100807.03;;;9.25;79.38
78845;BME280;68195;50.854;2.860;2023-04-24T09:17:38;100868.03;;;9.60;79.13
78845;BME280;68195;50.854;2.860;2023-04-24T09:20:04;100883.75;;;9.59;80.23
78845;BME280;68195;50.854;2.860;2023-04-24T09:22:30;100862.03;;;9.58;79.59
78845;BME280;68195;50.854;2.860;2023-04-24T09:25:03;100819.06;;;9.28;79.63
78845;BME280;68195;50.854;2.860;2023-04-24T09:27:31;100833.47;;;9.57;79.07
78845;BME280;68195;50.854;2.860;2023-04-24T09:29:57;100873.81;;;9.88;79.37
78845;BME280;68195;50.854;2.860;2023-04-24T09:32:24;100880.50;;;9.74;80.06
78845;BME280;68195;50.854;2.860;2023-04-24T09:35:12;100844.19;;;9.49;79.74
78845;BME280;68195;50.854;2.860;2023-04-24T09:37:40;100847.75;;;9.48;79.89
78845;BME280;68195;50.854;2.860;2023-04-24T09:40:19;100845.28;;;9.64;79.68
78845;BME280;68195;50.854;2.860;2023-04-24T09:42:51;100869.38;;;9.90;78.27
78845;BME280;68195;50.854;2.860;2023-04-24T09:45:17;100898.69;;;9.95;76.68
78845;BME280;68195;50.854;2.860;2023-04-24T09:47:42;100817.41;;;9.27;78.40
78845;BME280;68195;50.854;2.860;2023-04-24T09:50:16;100895.88;;;9.60;77.95
78845;BME280;68195;50.854;2.860;2023-04-24T09:52:44;100894.94;;;9.81;78.96
78845;BME280;68195;50.854;2.860;2023-04-24T09:55:19;100857.75;;;9.37;79.98
78845;BME280;68195;50.854;2.860;2023-04-24T09:57:53;100891.34;;;9.44;79.16
78845;BME280;68195;50.854;2.860;2023-04-24T10:00:31;100905.63;;;9.75;80.36
78845;BME280;68195;50.854;2.860;2023-04-24T10:03:01;100890.28;;;9.49;78.49
78845;BME280;68195;50.854;2.860;2023-04-24T10:05:35;100901.41;;;9.52;79.46
78845;BME280;68195;50.854;2.860;2023-04-24T10:08:06;100914.66;;;9.68;78.63
78845;BME280;68195;50.854;2.860;2023-04-24T10:10:34;100882.53;;;9.47;77.83
78845;BME280;68195;50.854;2.860;2023-04-24T10:13:02;100923.09;;;9.94;80.37
78845;BME280;68195;50.854;2.860;2023-04-24T10:15:29;100892.78;;;10.10;78.21
78845;BME280;68195;50.854;2.860;2023-04-24T10:17:57;100922.00;;;10.18;78.01
78845;BME280;68195;50.854;2.860;2023-04-24T10:20:27;100924.31;;;10.24;78.18
78845;BME280;68195;50.854;2.860;2023-04-24T10:22:58;100922.97;;;10.16;78.68
78845;BME280;68195;50.854;2.860;2023-04-24T10:25:27;100924.66;;;10.17;79.19
78845;BME280;68195;50.854;2.860;2023-04-24T10:27:56;100909.53;;;9.85;77.90
78845;BME280;68195;50.854;2.860;2023-04-24T10:30:26;100841.81;;;9.44;78.47
78845;BME280;68195;50.854;2.860;2023-04-24T10:32:52;100905.53;;;9.97;77.97
78845;BME280;68195;50.854;2.860;2023-04-24T10:35:18;100924.31;;;10.24;77.65
78845;BME280;68195;50.854;2.860;2023-04-24T10:37:50;100920.22;;;10.19;77.60
78845;BME280;68195;50.854;2.860;2023-04-24T10:40:18;100911.13;;;10.27;78.48
78845;BME280;68195;50.854;2.860;2023-04-24T10:42:51;100934.72;;;10.64;76.96
78845;BME280;68195;50.854;2.860;2023-04-24T10:45:18;100940.53;;;10.33;76.02
78845;BME280;68195;50.854;2.860;2023-04-24T10:48:06;100943.25;;;10.30;76.91
78845;BME280;68195;50.854;2.860;2023-04-24T10:50:43;100941.44;;;10.51;77.26
78845;BME280;68195;50.854;2.860;2023-04-24T10:53:25;100920.59;;;10.49;74.89
78845;BME280;68195;50.854;2.860;2023-04-24T10:56:07;100896.66;;;10.20;75.70
78845;BME280;68195;50.854;2.860;2023-04-24T10:58:51;100948.19;;;10.36;75.34
78845;BME280;68195;50.854;2.860;2023-04-24T11:01:29;100949.13;;;10.14;73.81
78845;BME280;68195;50.854;2.860;2023-04-24T11:03:58;100900.97;;;10.02;74.72
78845;BME280;68195;50.854;2.860;2023-04-24T11:06:31;100948.69;;;10.63;76.35
78845;BME280;68195;50.854;2.860;2023-04-24T11:09:07;100936.56;;;10.98;74.54
78845;BME280;68195;50.854;2.860;2023-04-24T11:11:35;100954.00;;;10.61;73.54
78845;BME280;68195;50.854;2.860;2023-04-24T11:14:04;100958.16;;;10.65;75.17
78845;BME280;68195;50.854;2.860;2023-04-24T11:22:01;100969.66;;;10.42;74.99
78845;BME280;68195;50.854;2.860;2023-04-24T11:32:47;100951.88;;;10.51;74.05
78845;BME280;68195;50.854;2.860;2023-04-24T11:35:23;100976.28;;;10.68;73.74
78845;BME280;68195;50.854;2.860;2023-04-24T11:37:52;100974.38;;;10.72;72.54
78845;BME280;68195;50.854;2.860;2023-04-24T11:40:19;100961.59;;;10.85;74.94
78845;BME280;68195;50.854;2.860;2023-04-24T11:42:50;100976.16;;;10.72;73.18
78845;BME280;68195;50.854;2.860;2023-04-24T11:45:22;100967.72;;;10.84;73.64
78845;BME280;68195;50.854;2.860;2023-04-24T11:47:47;100958.09;;;10.67;72.71
78845;BME280;68195;50.854;2.860;2023-04-24T11:50:18;100964.78;;;10.73;71.58
78845;BME280;68195;50.854;2.860;2023-04-24T11:52:46;100963.53;;;10.99;72.37
78845;BME280;68195;50.854;2.860;2023-04-24T11:57:43;100974.84;;;10.99;72.25
78845;BME280;68195;50.854;2.860;2023-04-24T12:00:15;100932.81;;;10.67;71.91
78845;BME280;68195;50.854;2.860;2023-04-24T12:02:41;100911.44;;;10.59;71.59
78845;BME280;68195;50.854;2.860;2023-04-24T12:05:08;100961.97;;;10.95;71.91
78845;BME280;68195;50.854;2.860;2023-04-24T12:07:41;100982.75;;;10.98;71.18
78845;BME280;68195;50.854;2.860;2023-04-24T12:10:09;100933.63;;;10.87;71.96
78845;BME280;68195;50.854;2.860;2023-04-24T12:12:37;100971.16;;;11.03;72.68
78845;BME280;68195;50.854;2.860;2023-04-24T12:15:07;100959.59;;;10.90;71.83
78845;BME280;68195;50.854;2.860;2023-04-24T12:17:35;100976.69;;;10.97;71.71
78845;BME280;68195;50.854;2.860;2023-04-24T12:20:05;100959.78;;;11.04;71.48
78845;BME280;68195;50.854;2.860;2023-04-24T12:22:47;100972.66;;;11.26;70.26
78845;BME280;68195;50.854;2.860;2023-04-24T12:25:15;100981.34;;;11.27;71.32
78845;BME280;68195;50.854;2.860;2023-04-24T12:27:41;100988.28;;;11.45;70.63
78845;BME280;68195;50.854;2.860;2023-04-24T12:30:11;100991.13;;;11.23;70.30
78845;BME280;68195;50.854;2.860;2023-04-24T12:32:44;100972.13;;;11.20;71.65
78845;BME280;68195;50.854;2.860;2023-04-24T12:35:10;100958.69;;;10.91;69.67
78845;BME280;68195;50.854;2.860;2023-04-24T12:37:36;100983.75;;;10.95;70.53
78845;BME280;68195;50.854;2.860;2023-04-24T12:40:09;100976.81;;;10.94;70.03
78845;BME280;68195;50.854;2.860;2023-04-24T12:42:48;100986.63;;;11.08;70.45
78845;BME280;68195;50.854;2.860;2023-04-24T12:45:17;100964.22;;;10.85;69.72
78845;BME280;68195;50.854;2.860;2023-04-24T12:47:44;100983.81;;;10.94;70.32
78845;BME280;68195;50.854;2.860;2023-04-24T12:50:14;100984.16;;;11.05;69.66
78845;BME280;68195;50.854;2.860;2023-04-24T12:52:43;100974.56;;;11.23;70.85
78845;BME280;68195;50.854;2.860;2023-04-24T12:55:11;100981.09;;;11.32;70.41
78845;BME280;68195;50.854;2.860;2023-04-24T12:57:40;100994.75;;;11.38;70.91
78845;BME280;68195;50.854;2.860;2023-04-24T13:00:07;100972.78;;;11.06;69.50
78845;BME280;68195;50.854;2.860;2023-04-24T13:02:32;100986.94;;;11.02;70.24
78845;BME280;68195;50.854;2.860;2023-04-24T13:04:58;100964.56;;;10.77;69.91
78845;BME280;68195;50.854;2.860;2023-04-24T13:07:26;100970.06;;;10.71;71.00
78845;BME280;68195;50.854;2.860;2023-04-24T13:09:52;100968.38;;;10.70;70.83
78845;BME280;68195;50.854;2.860;2023-04-24T13:12:18;100948.59;;;10.64;71.85
78845;BME280;68195;50.854;2.860;2023-04-24T13:14:44;100979.44;;;10.75;70.78